Monroe, North Carolina
Current Conditions -  °F | °C
As of 12:53 AM on Friday 28 Nov 2014 (Local Time) from KEQY Reporting Station
Clear Clear  
Wind Chill: 30°   Ceiling: Unl
Heat Index: 34°   Visibility: 10mi
Dew Point: 23°   Wind: 5mph
Humidity: 64%   Direction: 340°NNW
Pressure: 30.28"   Gusts: NA
Location:  34.98°N, 80.55°W
Report Text: KEQY 280553Z AUTO 34004KT 10SM CLR 01/M05 A3028 RMK AO2 SLP273 T00111050 10072 20011 51013
Loading
Personal Weather Stations






























Interactive Weather Map New forecast layout! Learn more

10-Day Weather Forecast

Advertisements
Track Severe Weather on mobile